sensor_id;sensor_type;location;lat;lon;timestamp;P1;durP1;ratioP1;P2;durP2;ratioP2
8797;SDS011;4435;50.898;4.734;2023-02-17T00:00:04;5.00;;;4.27;;
8797;SDS011;4435;50.898;4.734;2023-02-17T00:02:32;5.40;;;4.50;;
8797;SDS011;4435;50.898;4.734;2023-02-17T00:04:58;4.70;;;4.17;;
8797;SDS011;4435;50.898;4.734;2023-02-17T00:07:24;5.13;;;4.30;;
8797;SDS011;4435;50.898;4.734;2023-02-17T00:09:56;4.77;;;4.27;;
8797;SDS011;4435;50.898;4.734;2023-02-17T00:12:25;3.87;;;3.57;;
8797;SDS011;4435;50.898;4.734;2023-02-17T00:14:51;4.43;;;4.03;;
8797;SDS011;4435;50.898;4.734;2023-02-17T00:17:17;4.83;;;3.87;;
8797;SDS011;4435;50.898;4.734;2023-02-17T00:19:43;4.73;;;3.77;;
8797;SDS011;4435;50.898;4.734;2023-02-17T00:22:09;4.17;;;3.77;;
8797;SDS011;4435;50.898;4.734;2023-02-17T00:24:38;4.30;;;3.90;;
8797;SDS011;4435;50.898;4.734;2023-02-17T00:27:04;4.40;;;3.97;;
8797;SDS011;4435;50.898;4.734;2023-02-17T00:29:30;4.87;;;4.40;;
8797;SDS011;4435;50.898;4.734;2023-02-17T00:31:56;4.37;;;3.97;;
8797;SDS011;4435;50.898;4.734;2023-02-17T00:34:22;4.03;;;3.63;;
8797;SDS011;4435;50.898;4.734;2023-02-17T00:36:48;4.20;;;3.80;;
8797;SDS011;4435;50.898;4.734;2023-02-17T00:39:14;4.13;;;3.73;;
8797;SDS011;4435;50.898;4.734;2023-02-17T00:41:41;4.00;;;3.70;;
8797;SDS011;4435;50.898;4.734;2023-02-17T00:44:07;4.43;;;4.03;;
8797;SDS011;4435;50.898;4.734;2023-02-17T00:46:42;4.00;;;3.60;;
8797;SDS011;4435;50.898;4.734;2023-02-17T00:49:15;4.67;;;3.97;;
8797;SDS011;4435;50.898;4.734;2023-02-17T00:51:43;3.77;;;3.47;;
8797;SDS011;4435;50.898;4.734;2023-02-17T00:54:10;3.57;;;3.27;;
8797;SDS011;4435;50.898;4.734;2023-02-17T00:56:36;4.27;;;3.90;;
8797;SDS011;4435;50.898;4.734;2023-02-17T00:59:02;4.07;;;3.67;;
8797;SDS011;4435;50.898;4.734;2023-02-17T01:01:28;4.00;;;3.60;;
8797;SDS011;4435;50.898;4.734;2023-02-17T01:03:54;4.03;;;3.63;;
8797;SDS011;4435;50.898;4.734;2023-02-17T01:06:22;3.63;;;3.33;;
8797;SDS011;4435;50.898;4.734;2023-02-17T01:08:50;3.80;;;3.40;;
8797;SDS011;4435;50.898;4.734;2023-02-17T01:11:20;3.83;;;3.50;;
8797;SDS011;4435;50.898;4.734;2023-02-17T01:13:48;3.90;;;3.60;;
8797;SDS011;4435;50.898;4.734;2023-02-17T01:16:18;4.17;;;3.40;;
8797;SDS011;4435;50.898;4.734;2023-02-17T01:18:54;3.77;;;3.47;;
8797;SDS011;4435;50.898;4.734;2023-02-17T01:21:24;3.97;;;3.67;;
8797;SDS011;4435;50.898;4.734;2023-02-17T01:23:53;3.87;;;3.47;;
8797;SDS011;4435;50.898;4.734;2023-02-17T01:26:22;3.90;;;3.53;;
8797;SDS011;4435;50.898;4.734;2023-02-17T01:28:50;4.17;;;3.77;;
8797;SDS011;4435;50.898;4.734;2023-02-17T01:31:17;4.00;;;3.23;;
8797;SDS011;4435;50.898;4.734;2023-02-17T01:33:44;4.13;;;3.60;;
8797;SDS011;4435;50.898;4.734;2023-02-17T01:36:11;3.97;;;3.20;;
8797;SDS011;4435;50.898;4.734;2023-02-17T01:38:38;3.50;;;3.20;;
8797;SDS011;4435;50.898;4.734;2023-02-17T01:41:04;3.47;;;3.17;;
8797;SDS011;4435;50.898;4.734;2023-02-17T01:43:32;3.40;;;3.10;;
8797;SDS011;4435;50.898;4.734;2023-02-17T01:45:59;3.50;;;3.20;;
8797;SDS011;4435;50.898;4.734;2023-02-17T01:48:30;3.30;;;3.00;;
8797;SDS011;4435;50.898;4.734;2023-02-17T01:51:10;3.60;;;3.30;;
8797;SDS011;4435;50.898;4.734;2023-02-17T01:56:09;3.80;;;3.40;;
8797;SDS011;4435;50.898;4.734;2023-02-17T01:58:38;3.63;;;3.33;;
8797;SDS011;4435;50.898;4.734;2023-02-17T02:01:06;3.13;;;2.83;;
8797;SDS011;4435;50.898;4.734;2023-02-17T02:03:33;3.20;;;2.90;;
8797;SDS011;4435;50.898;4.734;2023-02-17T02:06:03;3.37;;;3.00;;
8797;SDS011;4435;50.898;4.734;2023-02-17T02:08:33;3.40;;;3.10;;
8797;SDS011;4435;50.898;4.734;2023-02-17T02:11:09;3.37;;;3.07;;
8797;SDS011;4435;50.898;4.734;2023-02-17T02:13:35;3.57;;;3.10;;
8797;SDS011;4435;50.898;4.734;2023-02-17T02:18:44;2.83;;;2.63;;
8797;SDS011;4435;50.898;4.734;2023-02-17T02:24:28;3.40;;;2.70;;
8797;SDS011;4435;50.898;4.734;2023-02-17T02:29:39;3.20;;;2.90;;
8797;SDS011;4435;50.898;4.734;2023-02-17T02:41:01;3.00;;;2.70;;
8797;SDS011;4435;50.898;4.734;2023-02-17T02:43:35;2.90;;;2.67;;
8797;SDS011;4435;50.898;4.734;2023-02-17T02:46:02;2.90;;;2.70;;
8797;SDS011;4435;50.898;4.734;2023-02-17T02:48:28;3.73;;;3.13;;
8797;SDS011;4435;50.898;4.734;2023-02-17T02:50:56;3.30;;;3.00;;
8797;SDS011;4435;50.898;4.734;2023-02-17T02:56:17;3.13;;;2.83;;
8797;SDS011;4435;50.898;4.734;2023-02-17T03:01:25;2.97;;;2.73;;
8797;SDS011;4435;50.898;4.734;2023-02-17T03:04:12;2.93;;;2.73;;
8797;SDS011;4435;50.898;4.734;2023-02-17T03:06:45;2.70;;;2.50;;
8797;SDS011;4435;50.898;4.734;2023-02-17T03:09:20;3.10;;;2.80;;
8797;SDS011;4435;50.898;4.734;2023-02-17T03:11:48;3.10;;;2.80;;
8797;SDS011;4435;50.898;4.734;2023-02-17T03:14:16;3.03;;;2.77;;
8797;SDS011;4435;50.898;4.734;2023-02-17T03:16:44;2.90;;;2.67;;
8797;SDS011;4435;50.898;4.734;2023-02-17T03:19:11;3.20;;;2.90;;
8797;SDS011;4435;50.898;4.734;2023-02-17T03:21:43;3.57;;;2.93;;
8797;SDS011;4435;50.898;4.734;2023-02-17T03:24:12;3.13;;;2.83;;
8797;SDS011;4435;50.898;4.734;2023-02-17T03:26:38;3.10;;;2.80;;
8797;SDS011;4435;50.898;4.734;2023-02-17T03:29:03;3.80;;;2.80;;
8797;SDS011;4435;50.898;4.734;2023-02-17T03:31:29;2.93;;;2.63;;
8797;SDS011;4435;50.898;4.734;2023-02-17T03:33:55;3.03;;;2.60;;
8797;SDS011;4435;50.898;4.734;2023-02-17T03:36:21;2.97;;;2.70;;
8797;SDS011;4435;50.898;4.734;2023-02-17T03:38:47;3.07;;;2.83;;
8797;SDS011;4435;50.898;4.734;2023-02-17T03:41:13;2.93;;;2.63;;
8797;SDS011;4435;50.898;4.734;2023-02-17T03:43:39;2.60;;;2.40;;
8797;SDS011;4435;50.898;4.734;2023-02-17T03:46:08;3.20;;;2.90;;
8797;SDS011;4435;50.898;4.734;2023-02-17T03:48:38;2.87;;;2.60;;
8797;SDS011;4435;50.898;4.734;2023-02-17T03:51:11;2.90;;;2.70;;
8797;SDS011;4435;50.898;4.734;2023-02-17T03:53:39;3.10;;;2.80;;
8797;SDS011;4435;50.898;4.734;2023-02-17T03:56:05;2.70;;;2.50;;
8797;SDS011;4435;50.898;4.734;2023-02-17T03:58:31;3.33;;;2.70;;
8797;SDS011;4435;50.898;4.734;2023-02-17T04:00:57;2.90;;;2.60;;
8797;SDS011;4435;50.898;4.734;2023-02-17T04:03:23;2.97;;;2.67;;
8797;SDS011;4435;50.898;4.734;2023-02-17T04:05:49;3.03;;;2.60;;
8797;SDS011;4435;50.898;4.734;2023-02-17T04:08:14;3.07;;;2.77;;
8797;SDS011;4435;50.898;4.734;2023-02-17T04:10:40;3.00;;;2.70;;
8797;SDS011;4435;50.898;4.734;2023-02-17T04:13:06;2.70;;;2.40;;
8797;SDS011;4435;50.898;4.734;2023-02-17T04:15:32;3.20;;;2.50;;
8797;SDS011;4435;50.898;4.734;2023-02-17T04:17:57;2.80;;;2.57;;
8797;SDS011;4435;50.898;4.734;2023-02-17T04:20:23;3.00;;;2.70;;
8797;SDS011;4435;50.898;4.734;2023-02-17T04:22:49;2.90;;;2.60;;
8797;SDS011;4435;50.898;4.734;2023-02-17T04:25:14;3.00;;;2.60;;
8797;SDS011;4435;50.898;4.734;2023-02-17T04:27:40;3.07;;;2.70;;
8797;SDS011;4435;50.898;4.734;2023-02-17T04:30:06;2.93;;;2.40;;
8797;SDS011;4435;50.898;4.734;2023-02-17T04:32:32;3.23;;;2.73;;
8797;SDS011;4435;50.898;4.734;2023-02-17T04:34:58;2.60;;;2.40;;
8797;SDS011;4435;50.898;4.734;2023-02-17T04:37:23;3.30;;;2.80;;
8797;SDS011;4435;50.898;4.734;2023-02-17T04:39:49;2.80;;;2.60;;
8797;SDS011;4435;50.898;4.734;2023-02-17T04:42:15;3.10;;;2.80;;
8797;SDS011;4435;50.898;4.734;2023-02-17T04:44:40;2.50;;;2.30;;
8797;SDS011;4435;50.898;4.734;2023-02-17T04:47:06;2.90;;;2.60;;
8797;SDS011;4435;50.898;4.734;2023-02-17T04:49:32;2.90;;;2.50;;
8797;SDS011;4435;50.898;4.734;2023-02-17T04:51:57;3.00;;;2.37;;
8797;SDS011;4435;50.898;4.734;2023-02-17T04:54:23;2.73;;;2.50;;
8797;SDS011;4435;50.898;4.734;2023-02-17T04:56:49;3.37;;;2.70;;
8797;SDS011;4435;50.898;4.734;2023-02-17T04:59:14;2.87;;;2.50;;
8797;SDS011;4435;50.898;4.734;2023-02-17T05:01:40;3.27;;;2.53;;
8797;SDS011;4435;50.898;4.734;2023-02-17T05:04:06;3.87;;;2.87;;
8797;SDS011;4435;50.898;4.734;2023-02-17T05:06:31;3.10;;;2.80;;
8797;SDS011;4435;50.898;4.734;2023-02-17T05:08:57;3.00;;;2.70;;
8797;SDS011;4435;50.898;4.734;2023-02-17T05:11:23;3.07;;;2.50;;
8797;SDS011;4435;50.898;4.734;2023-02-17T05:13:48;2.90;;;2.60;;
8797;SDS011;4435;50.898;4.734;2023-02-17T05:16:14;2.80;;;2.60;;
8797;SDS011;4435;50.898;4.734;2023-02-17T05:18:40;3.53;;;2.47;;
8797;SDS011;4435;50.898;4.734;2023-02-17T05:21:05;3.23;;;2.60;;
8797;SDS011;4435;50.898;4.734;2023-02-17T05:23:31;3.00;;;2.73;;
8797;SDS011;4435;50.898;4.734;2023-02-17T05:25:57;3.20;;;2.80;;
8797;SDS011;4435;50.898;4.734;2023-02-17T05:28:22;3.30;;;3.00;;
8797;SDS011;4435;50.898;4.734;2023-02-17T05:30:48;3.30;;;3.00;;
8797;SDS011;4435;50.898;4.734;2023-02-17T05:33:15;2.90;;;2.57;;
8797;SDS011;4435;50.898;4.734;2023-02-17T05:35:40;3.27;;;2.80;;
8797;SDS011;4435;50.898;4.734;2023-02-17T05:38:06;3.20;;;2.90;;
8797;SDS011;4435;50.898;4.734;2023-02-17T05:40:32;2.80;;;2.60;;
8797;SDS011;4435;50.898;4.734;2023-02-17T05:42:58;2.73;;;2.53;;
8797;SDS011;4435;50.898;4.734;2023-02-17T05:45:23;3.03;;;2.73;;
8797;SDS011;4435;50.898;4.734;2023-02-17T05:47:49;2.93;;;2.57;;
8797;SDS011;4435;50.898;4.734;2023-02-17T05:50:15;3.10;;;2.80;;
8797;SDS011;4435;50.898;4.734;2023-02-17T05:52:41;2.67;;;2.47;;
8797;SDS011;4435;50.898;4.734;2023-02-17T05:55:07;2.80;;;2.60;;
8797;SDS011;4435;50.898;4.734;2023-02-17T05:57:32;3.00;;;2.80;;
8797;SDS011;4435;50.898;4.734;2023-02-17T05:59:58;2.63;;;2.43;;
8797;SDS011;4435;50.898;4.734;2023-02-17T06:02:24;3.23;;;2.80;;
8797;SDS011;4435;50.898;4.734;2023-02-17T06:04:52;2.80;;;2.50;;
8797;SDS011;4435;50.898;4.734;2023-02-17T06:07:18;3.17;;;2.40;;
8797;SDS011;4435;50.898;4.734;2023-02-17T06:09:44;3.47;;;2.63;;
8797;SDS011;4435;50.898;4.734;2023-02-17T06:12:09;4.17;;;2.70;;
8797;SDS011;4435;50.898;4.734;2023-02-17T06:14:35;2.73;;;2.53;;
8797;SDS011;4435;50.898;4.734;2023-02-17T06:17:01;2.80;;;2.50;;
8797;SDS011;4435;50.898;4.734;2023-02-17T06:19:28;3.20;;;2.90;;
8797;SDS011;4435;50.898;4.734;2023-02-17T06:21:54;3.13;;;2.80;;
8797;SDS011;4435;50.898;4.734;2023-02-17T06:24:21;3.90;;;2.80;;
8797;SDS011;4435;50.898;4.734;2023-02-17T06:26:47;2.90;;;2.60;;
8797;SDS011;4435;50.898;4.734;2023-02-17T06:29:12;4.23;;;2.63;;
8797;SDS011;4435;50.898;4.734;2023-02-17T06:31:38;3.57;;;2.90;;
8797;SDS011;4435;50.898;4.734;2023-02-17T06:34:04;3.07;;;2.60;;
8797;SDS011;4435;50.898;4.734;2023-02-17T06:36:30;4.07;;;2.70;;
8797;SDS011;4435;50.898;4.734;2023-02-17T06:38:56;2.80;;;2.60;;
8797;SDS011;4435;50.898;4.734;2023-02-17T06:41:21;2.77;;;2.50;;
8797;SDS011;4435;50.898;4.734;2023-02-17T06:43:47;3.10;;;2.80;;
8797;SDS011;4435;50.898;4.734;2023-02-17T06:46:13;3.57;;;3.00;;
8797;SDS011;4435;50.898;4.734;2023-02-17T06:48:39;2.93;;;2.67;;
8797;SDS011;4435;50.898;4.734;2023-02-17T06:51:04;2.77;;;2.57;;
8797;SDS011;4435;50.898;4.734;2023-02-17T06:53:30;2.60;;;2.33;;
8797;SDS011;4435;50.898;4.734;2023-02-17T06:55:56;5.27;;;2.60;;
8797;SDS011;4435;50.898;4.734;2023-02-17T06:58:21;3.87;;;2.67;;
8797;SDS011;4435;50.898;4.734;2023-02-17T07:00:47;2.73;;;2.53;;
8797;SDS011;4435;50.898;4.734;2023-02-17T07:03:16;2.57;;;2.37;;
8797;SDS011;4435;50.898;4.734;2023-02-17T07:05:42;3.60;;;2.83;;
8797;SDS011;4435;50.898;4.734;2023-02-17T07:08:07;2.83;;;2.63;;
8797;SDS011;4435;50.898;4.734;2023-02-17T07:10:33;4.10;;;2.60;;
8797;SDS011;4435;50.898;4.734;2023-02-17T07:13:01;6.70;;;2.90;;
8797;SDS011;4435;50.898;4.734;2023-02-17T07:15:26;3.03;;;2.50;;
8797;SDS011;4435;50.898;4.734;2023-02-17T07:17:52;3.63;;;2.87;;
8797;SDS011;4435;50.898;4.734;2023-02-17T07:20:18;5.47;;;2.77;;
8797;SDS011;4435;50.898;4.734;2023-02-17T07:22:44;3.03;;;2.70;;
8797;SDS011;4435;50.898;4.734;2023-02-17T07:25:09;3.43;;;2.87;;
8797;SDS011;4435;50.898;4.734;2023-02-17T07:27:35;6.63;;;2.90;;
8797;SDS011;4435;50.898;4.734;2023-02-17T07:30:01;3.00;;;2.70;;
8797;SDS011;4435;50.898;4.734;2023-02-17T07:32:28;2.90;;;2.70;;
8797;SDS011;4435;50.898;4.734;2023-02-17T07:34:54;3.00;;;2.50;;
8797;SDS011;4435;50.898;4.734;2023-02-17T07:37:19;3.07;;;2.77;;
8797;SDS011;4435;50.898;4.734;2023-02-17T07:39:46;5.13;;;2.90;;
8797;SDS011;4435;50.898;4.734;2023-02-17T07:42:12;3.10;;;2.80;;
8797;SDS011;4435;50.898;4.734;2023-02-17T07:44:38;3.90;;;3.17;;
8797;SDS011;4435;50.898;4.734;2023-02-17T07:47:04;5.13;;;2.97;;
8797;SDS011;4435;50.898;4.734;2023-02-17T07:49:29;2.77;;;2.57;;
8797;SDS011;4435;50.898;4.734;2023-02-17T07:51:55;3.23;;;2.93;;
8797;SDS011;4435;50.898;4.734;2023-02-17T07:54:21;3.00;;;2.70;;
8797;SDS011;4435;50.898;4.734;2023-02-17T07:56:46;2.90;;;2.60;;
8797;SDS011;4435;50.898;4.734;2023-02-17T07:59:13;3.20;;;2.87;;
8797;SDS011;4435;50.898;4.734;2023-02-17T08:01:39;3.00;;;2.70;;
8797;SDS011;4435;50.898;4.734;2023-02-17T08:04:05;3.10;;;2.80;;
8797;SDS011;4435;50.898;4.734;2023-02-17T08:06:31;3.13;;;2.83;;
8797;SDS011;4435;50.898;4.734;2023-02-17T08:08:56;2.83;;;2.63;;
8797;SDS011;4435;50.898;4.734;2023-02-17T08:11:41;8.87;;;3.10;;
8797;SDS011;4435;50.898;4.734;2023-02-17T08:14:30;3.07;;;2.77;;
8797;SDS011;4435;50.898;4.734;2023-02-17T08:16:57;4.30;;;2.60;;
8797;SDS011;4435;50.898;4.734;2023-02-17T08:19:24;3.63;;;2.73;;
8797;SDS011;4435;50.898;4.734;2023-02-17T08:21:51;3.27;;;2.97;;
8797;SDS011;4435;50.898;4.734;2023-02-17T08:24:17;2.80;;;2.60;;
8797;SDS011;4435;50.898;4.734;2023-02-17T08:26:46;3.00;;;2.70;;
8797;SDS011;4435;50.898;4.734;2023-02-17T08:29:12;3.00;;;2.70;;
8797;SDS011;4435;50.898;4.734;2023-02-17T08:31:39;2.60;;;2.40;;
8797;SDS011;4435;50.898;4.734;2023-02-17T08:34:07;3.23;;;2.93;;
8797;SDS011;4435;50.898;4.734;2023-02-17T08:36:34;3.13;;;2.83;;
8797;SDS011;4435;50.898;4.734;2023-02-17T08:39:04;3.37;;;2.90;;
8797;SDS011;4435;50.898;4.734;2023-02-17T08:41:32;3.07;;;2.80;;
8797;SDS011;4435;50.898;4.734;2023-02-17T08:44:00;3.10;;;2.80;;
8797;SDS011;4435;50.898;4.734;2023-02-17T08:46:28;3.10;;;2.80;;
8797;SDS011;4435;50.898;4.734;2023-02-17T08:48:55;3.50;;;2.73;;
8797;SDS011;4435;50.898;4.734;2023-02-17T08:51:22;2.87;;;2.60;;
8797;SDS011;4435;50.898;4.734;2023-02-17T08:53:50;3.10;;;2.87;;
8797;SDS011;4435;50.898;4.734;2023-02-17T08:56:18;3.23;;;2.93;;
8797;SDS011;4435;50.898;4.734;2023-02-17T08:58:45;2.93;;;2.60;;
8797;SDS011;4435;50.898;4.734;2023-02-17T09:01:10;3.93;;;2.70;;
8797;SDS011;4435;50.898;4.734;2023-02-17T09:03:37;2.70;;;2.50;;
8797;SDS011;4435;50.898;4.734;2023-02-17T09:06:04;3.17;;;2.87;;
8797;SDS011;4435;50.898;4.734;2023-02-17T09:08:30;2.90;;;2.60;;
8797;SDS011;4435;50.898;4.734;2023-02-17T09:10:55;3.47;;;2.53;;
8797;SDS011;4435;50.898;4.734;2023-02-17T09:13:21;2.90;;;2.60;;
8797;SDS011;4435;50.898;4.734;2023-02-17T09:15:47;2.70;;;2.30;;
8797;SDS011;4435;50.898;4.734;2023-02-17T09:18:13;2.53;;;2.33;;
8797;SDS011;4435;50.898;4.734;2023-02-17T09:20:39;3.83;;;2.63;;
8797;SDS011;4435;50.898;4.734;2023-02-17T09:23:05;3.47;;;2.77;;
8797;SDS011;4435;50.898;4.734;2023-02-17T09:25:31;2.60;;;2.40;;
8797;SDS011;4435;50.898;4.734;2023-02-17T09:27:57;3.17;;;2.60;;
8797;SDS011;4435;50.898;4.734;2023-02-17T09:30:23;3.07;;;2.77;;
8797;SDS011;4435;50.898;4.734;2023-02-17T09:32:49;3.20;;;2.53;;
8797;SDS011;4435;50.898;4.734;2023-02-17T09:35:16;3.10;;;2.60;;
8797;SDS011;4435;50.898;4.734;2023-02-17T09:37:42;3.77;;;2.63;;
8797;SDS011;4435;50.898;4.734;2023-02-17T09:42:41;2.60;;;2.40;;
8797;SDS011;4435;50.898;4.734;2023-02-17T09:48:07;4.77;;;2.80;;
8797;SDS011;4435;50.898;4.734;2023-02-17T09:50:48;3.17;;;2.60;;
8797;SDS011;4435;50.898;4.734;2023-02-17T09:53:25;2.87;;;2.40;;
8797;SDS011;4435;50.898;4.734;2023-02-17T09:56:02;2.73;;;2.47;;
8797;SDS011;4435;50.898;4.734;2023-02-17T09:58:36;3.00;;;2.70;;
8797;SDS011;4435;50.898;4.734;2023-02-17T10:01:09;3.20;;;2.17;;
8797;SDS011;4435;50.898;4.734;2023-02-17T10:03:42;4.87;;;2.50;;
8797;SDS011;4435;50.898;4.734;2023-02-17T10:06:17;5.33;;;2.80;;
8797;SDS011;4435;50.898;4.734;2023-02-17T10:11:39;5.00;;;2.50;;
8797;SDS011;4435;50.898;4.734;2023-02-17T10:16:52;2.77;;;2.57;;
8797;SDS011;4435;50.898;4.734;2023-02-17T10:19:26;3.90;;;2.33;;
8797;SDS011;4435;50.898;4.734;2023-02-17T10:22:06;3.50;;;2.20;;
8797;SDS011;4435;50.898;4.734;2023-02-17T10:24:36;3.83;;;2.20;;
8797;SDS011;4435;50.898;4.734;2023-02-17T10:30:08;2.37;;;2.10;;
8797;SDS011;4435;50.898;4.734;2023-02-17T10:33:00;2.43;;;2.10;;
8797;SDS011;4435;50.898;4.734;2023-02-17T10:35:47;3.00;;;2.10;;
8797;SDS011;4435;50.898;4.734;2023-02-17T10:38:50;2.30;;;2.10;;
8797;SDS011;4435;50.898;4.734;2023-02-17T10:41:30;2.30;;;2.10;;
8797;SDS011;4435;50.898;4.734;2023-02-17T10:44:00;2.37;;;2.17;;
8797;SDS011;4435;50.898;4.734;2023-02-17T10:46:30;2.47;;;2.27;;
8797;SDS011;4435;50.898;4.734;2023-02-17T10:48:57;4.03;;;2.00;;
8797;SDS011;4435;50.898;4.734;2023-02-17T10:51:24;2.37;;;2.17;;
8797;SDS011;4435;50.898;4.734;2023-02-17T10:54:35;3.00;;;2.00;;
8797;SDS011;4435;50.898;4.734;2023-02-17T10:56:47;2.23;;;1.90;;
8797;SDS011;4435;50.898;4.734;2023-02-17T11:01:47;2.93;;;2.00;;
8797;SDS011;4435;50.898;4.734;2023-02-17T11:04:13;2.37;;;2.00;;
8797;SDS011;4435;50.898;4.734;2023-02-17T11:06:44;3.03;;;2.20;;
8797;SDS011;4435;50.898;4.734;2023-02-17T11:09:19;3.07;;;1.97;;
8797;SDS011;4435;50.898;4.734;2023-02-17T11:12:00;2.30;;;1.90;;
8797;SDS011;4435;50.898;4.734;2023-02-17T11:14:29;5.37;;;2.20;;
8797;SDS011;4435;50.898;4.734;2023-02-17T11:17:00;3.67;;;2.40;;
8797;SDS011;4435;50.898;4.734;2023-02-17T11:19:28;4.10;;;2.03;;
8797;SDS011;4435;50.898;4.734;2023-02-17T11:21:58;2.77;;;2.20;;
8797;SDS011;4435;50.898;4.734;2023-02-17T11:24:26;4.10;;;2.10;;
8797;SDS011;4435;50.898;4.734;2023-02-17T11:26:54;2.40;;;2.10;;
8797;SDS011;4435;50.898;4.734;2023-02-17T11:29:33;3.33;;;2.00;;
8797;SDS011;4435;50.898;4.734;2023-02-17T11:32:01;2.70;;;2.20;;
8797;SDS011;4435;50.898;4.734;2023-02-17T11:34:36;2.43;;;2.20;;
8797;SDS011;4435;50.898;4.734;2023-02-17T11:39:45;3.57;;;2.37;;
8797;SDS011;4435;50.898;4.734;2023-02-17T11:42:19;4.77;;;2.30;;
8797;SDS011;4435;50.898;4.734;2023-02-17T11:44:59;2.67;;;2.10;;
8797;SDS011;4435;50.898;4.734;2023-02-17T11:50:25;2.73;;;2.07;;
8797;SDS011;4435;50.898;4.734;2023-02-17T12:01:28;2.23;;;1.90;;
8797;SDS011;4435;50.898;4.734;2023-02-17T12:37:19;3.20;;;1.90;;
8797;SDS011;4435;50.898;4.734;2023-02-17T12:42:41;1.83;;;1.73;;
8797;SDS011;4435;50.898;4.734;2023-02-17T12:45:15;3.07;;;1.70;;
8797;SDS011;4435;50.898;4.734;2023-02-17T12:50:24;2.67;;;1.70;;
8797;SDS011;4435;50.898;4.734;2023-02-17T12:52:59;2.33;;;1.43;;
8797;SDS011;4435;50.898;4.734;2023-02-17T12:55:35;1.80;;;1.70;;
8797;SDS011;4435;50.898;4.734;2023-02-17T12:58:33;1.87;;;1.50;;
8797;SDS011;4435;50.898;4.734;2023-02-17T13:03:30;2.63;;;1.53;;
8797;SDS011;4435;50.898;4.734;2023-02-17T13:11:43;1.80;;;1.50;;
8797;SDS011;4435;50.898;4.734;2023-02-17T13:13:54;1.60;;;1.50;;
8797;SDS011;4435;50.898;4.734;2023-02-17T13:16:20;3.37;;;1.47;;
8797;SDS011;4435;50.898;4.734;2023-02-17T13:18:47;1.70;;;1.60;;
8797;SDS011;4435;50.898;4.734;2023-02-17T13:23:41;3.80;;;1.60;;
8797;SDS011;4435;50.898;4.734;2023-02-17T13:28:45;1.87;;;1.40;;
8797;SDS011;4435;50.898;4.734;2023-02-17T13:31:14;3.67;;;1.30;;
8797;SDS011;4435;50.898;4.734;2023-02-17T13:36:33;1.70;;;1.60;;
8797;SDS011;4435;50.898;4.734;2023-02-17T13:41:32;2.30;;;1.50;;
8797;SDS011;4435;50.898;4.734;2023-02-17T13:44:27;2.00;;;1.40;;
8797;SDS011;4435;50.898;4.734;2023-02-17T13:47:05;3.53;;;1.50;;
8797;SDS011;4435;50.898;4.734;2023-02-17T13:49:40;1.87;;;1.50;;
8797;SDS011;4435;50.898;4.734;2023-02-17T13:52:07;1.60;;;1.50;;
8797;SDS011;4435;50.898;4.734;2023-02-17T13:54:34;2.47;;;1.30;;
8797;SDS011;4435;50.898;4.734;2023-02-17T13:56:59;1.97;;;1.50;;
8797;SDS011;4435;50.898;4.734;2023-02-17T13:59:26;1.67;;;1.50;;
8797;SDS011;4435;50.898;4.734;2023-02-17T14:01:52;3.03;;;1.40;;
8797;SDS011;4435;50.898;4.734;2023-02-17T14:04:28;2.70;;;1.50;;
8797;SDS011;4435;50.898;4.734;2023-02-17T14:06:56;3.40;;;1.30;;
8797;SDS011;4435;50.898;4.734;2023-02-17T14:09:27;3.27;;;1.50;;
8797;SDS011;4435;50.898;4.734;2023-02-17T14:11:55;1.40;;;1.23;;
8797;SDS011;4435;50.898;4.734;2023-02-17T14:14:25;3.63;;;1.30;;
8797;SDS011;4435;50.898;4.734;2023-02-17T14:17:07;1.97;;;1.40;;
8797;SDS011;4435;50.898;4.734;2023-02-17T14:19:50;10.10;;;1.40;;
8797;SDS011;4435;50.898;4.734;2023-02-17T14:25:11;1.60;;;1.50;;
8797;SDS011;4435;50.898;4.734;2023-02-17T14:27:48;3.93;;;1.43;;
8797;SDS011;4435;50.898;4.734;2023-02-17T14:33:17;2.00;;;1.10;;
8797;SDS011;4435;50.898;4.734;2023-02-17T14:36:01;1.33;;;1.23;;
8797;SDS011;4435;50.898;4.734;2023-02-17T14:38:38;2.40;;;1.40;;
8797;SDS011;4435;50.898;4.734;2023-02-17T14:41:06;3.10;;;1.37;;
8797;SDS011;4435;50.898;4.734;2023-02-17T14:43:35;2.10;;;1.30;;
8797;SDS011;4435;50.898;4.734;2023-02-17T14:46:01;2.10;;;1.40;;
8797;SDS011;4435;50.898;4.734;2023-02-17T14:48:27;1.80;;;1.40;;
8797;SDS011;4435;50.898;4.734;2023-02-17T14:50:54;2.53;;;1.27;;
8797;SDS011;4435;50.898;4.734;2023-02-17T14:55:57;1.43;;;1.30;;
8797;SDS011;4435;50.898;4.734;2023-02-17T14:58:27;2.53;;;1.20;;
8797;SDS011;4435;50.898;4.734;2023-02-17T15:00:53;1.30;;;1.20;;
8797;SDS011;4435;50.898;4.734;2023-02-17T15:03:19;1.67;;;1.40;;
8797;SDS011;4435;50.898;4.734;2023-02-17T15:05:45;1.70;;;1.50;;
8797;SDS011;4435;50.898;4.734;2023-02-17T15:08:12;2.57;;;1.40;;
8797;SDS011;4435;50.898;4.734;2023-02-17T15:10:41;2.00;;;1.27;;
8797;SDS011;4435;50.898;4.734;2023-02-17T15:13:14;1.70;;;1.10;;
8797;SDS011;4435;50.898;4.734;2023-02-17T15:15:42;1.73;;;1.30;;
8797;SDS011;4435;50.898;4.734;2023-02-17T15:18:12;2.93;;;1.30;;
8797;SDS011;4435;50.898;4.734;2023-02-17T15:20:40;1.20;;;1.10;;
8797;SDS011;4435;50.898;4.734;2023-02-17T15:23:17;4.27;;;1.37;;
8797;SDS011;4435;50.898;4.734;2023-02-17T15:25:45;1.43;;;1.30;;
8797;SDS011;4435;50.898;4.734;2023-02-17T15:28:12;5.47;;;1.80;;
8797;SDS011;4435;50.898;4.734;2023-02-17T15:30:40;3.50;;;1.30;;
8797;SDS011;4435;50.898;4.734;2023-02-17T15:33:10;8.70;;;1.57;;
8797;SDS011;4435;50.898;4.734;2023-02-17T15:35:37;1.53;;;1.37;;
8797;SDS011;4435;50.898;4.734;2023-02-17T15:38:04;2.20;;;1.57;;
8797;SDS011;4435;50.898;4.734;2023-02-17T15:40:30;1.57;;;1.23;;
8797;SDS011;4435;50.898;4.734;2023-02-17T15:43:02;2.63;;;1.30;;
8797;SDS011;4435;50.898;4.734;2023-02-17T15:45:28;2.13;;;1.30;;
8797;SDS011;4435;50.898;4.734;2023-02-17T15:48:05;8.57;;;1.47;;
8797;SDS011;4435;50.898;4.734;2023-02-17T15:50:36;3.30;;;1.10;;
8797;SDS011;4435;50.898;4.734;2023-02-17T15:53:02;3.40;;;1.30;;
8797;SDS011;4435;50.898;4.734;2023-02-17T15:55:27;4.67;;;1.30;;
8797;SDS011;4435;50.898;4.734;2023-02-17T15:57:57;3.70;;;1.40;;
8797;SDS011;4435;50.898;4.734;2023-02-17T16:00:27;4.03;;;1.20;;
8797;SDS011;4435;50.898;4.734;2023-02-17T16:02:56;2.00;;;1.20;;
8797;SDS011;4435;50.898;4.734;2023-02-17T16:05:23;2.00;;;1.30;;
8797;SDS011;4435;50.898;4.734;2023-02-17T16:07:51;1.40;;;1.20;;
8797;SDS011;4435;50.898;4.734;2023-02-17T16:10:18;3.10;;;1.10;;
8797;SDS011;4435;50.898;4.734;2023-02-17T16:12:46;2.10;;;1.20;;
8797;SDS011;4435;50.898;4.734;2023-02-17T16:15:15;1.97;;;1.57;;
8797;SDS011;4435;50.898;4.734;2023-02-17T16:17:44;3.07;;;1.10;;
8797;SDS011;4435;50.898;4.734;2023-02-17T16:22:45;1.10;;;0.90;;
8797;SDS011;4435;50.898;4.734;2023-02-17T16:25:13;2.13;;;1.20;;
8797;SDS011;4435;50.898;4.734;2023-02-17T16:27:40;2.77;;;1.20;;
8797;SDS011;4435;50.898;4.734;2023-02-17T16:32:41;2.67;;;1.13;;
8797;SDS011;4435;50.898;4.734;2023-02-17T16:35:11;1.70;;;1.60;;
8797;SDS011;4435;50.898;4.734;2023-02-17T16:37:41;3.67;;;2.07;;
8797;SDS011;4435;50.898;4.734;2023-02-17T16:40:16;2.20;;;2.00;;
8797;SDS011;4435;50.898;4.734;2023-02-17T16:42:43;1.93;;;1.70;;
8797;SDS011;4435;50.898;4.734;2023-02-17T16:45:13;2.13;;;1.90;;
8797;SDS011;4435;50.898;4.734;2023-02-17T16:47:40;5.93;;;2.37;;
8797;SDS011;4435;50.898;4.734;2023-02-17T16:50:10;5.50;;;3.93;;
8797;SDS011;4435;50.898;4.734;2023-02-17T16:52:59;5.50;;;4.00;;
8797;SDS011;4435;50.898;4.734;2023-02-17T16:55:29;5.87;;;4.17;;
8797;SDS011;4435;50.898;4.734;2023-02-17T16:57:56;4.20;;;3.50;;
8797;SDS011;4435;50.898;4.734;2023-02-17T17:00:24;4.87;;;3.53;;
8797;SDS011;4435;50.898;4.734;2023-02-17T17:02:54;5.70;;;3.63;;
8797;SDS011;4435;50.898;4.734;2023-02-17T17:05:21;5.33;;;3.23;;
8797;SDS011;4435;50.898;4.734;2023-02-17T17:07:48;7.70;;;3.20;;
8797;SDS011;4435;50.898;4.734;2023-02-17T17:10:16;4.50;;;3.30;;
8797;SDS011;4435;50.898;4.734;2023-02-17T17:12:50;8.47;;;5.63;;
8797;SDS011;4435;50.898;4.734;2023-02-17T17:15:16;6.33;;;5.50;;
8797;SDS011;4435;50.898;4.734;2023-02-17T17:18:01;6.83;;;4.70;;
8797;SDS011;4435;50.898;4.734;2023-02-17T17:20:33;5.53;;;4.37;;
8797;SDS011;4435;50.898;4.734;2023-02-17T17:23:02;4.40;;;4.00;;
8797;SDS011;4435;50.898;4.734;2023-02-17T17:25:30;4.40;;;4.00;;
8797;SDS011;4435;50.898;4.734;2023-02-17T17:27:57;4.13;;;3.70;;
8797;SDS011;4435;50.898;4.734;2023-02-17T17:30:26;4.40;;;4.00;;